Lynnville, Indiana
Current Conditions -  °F | °C
As of 3:18 AM on Thursday 27 Nov 2014 (Local Time) from KEVV Reporting Station
Haze Haze  
Wind Chill: 25°   Ceiling: 3500
Heat Index: 32°   Visibility: 6mi
Dew Point: 28°   Wind: 8mph
Humidity: 85%   Direction: 350°N
Pressure: 30.22"   Gusts: NA
Location:  38.2°N, 87.3°W
Report Text: KEVV 270918Z AUTO 35007KT 6SM BR FEW009 BKN035 OVC065 00/M02 A3022 RMK AO2 T00001022
Loading
Personal Weather Stations






























Interactive Weather Map New forecast layout! Learn more

10-Day Weather Forecast

Advertisements
Track Severe Weather on mobile